Time;durP1;ratioP1;P1;durP2;ratioP2;P2;SDS_P1;SDS_P2;PMS_P1;PMS_P2;Temp;Humidity;BMP_temperature;BMP_pressure;BME280_temperature;BME280_humidity;BME280_pressure;Samples;Min_cycle;Max_cycle;Signal;HPM_P1;HPM_P2
2022/10/26 00:00:27;;;;;;;20.88;7.05;;;9.90;99.90;;;;;;5047735;28;20080;-66
2022/10/26 00:02:54;;;;;;;14.02;6.43;;;9.90;99.90;;;;;;5044967;28;20067;-67
2022/10/26 00:05:20;;;;;;;10.70;6.57;;;9.90;99.90;;;;;;5047025;28;20037;-67
2022/10/26 00:07:47;;;;;;;13.60;6.45;;;9.80;99.90;;;;;;5047702;28;20208;-66
2022/10/26 00:10:13;;;;;;;10.73;6.18;;;9.80;99.90;;;;;;5047048;28;20112;-66
2022/10/26 00:12:38;;;;;;;10.80;6.03;;;9.80;99.90;;;;;;5047861;28;20614;-66
2022/10/26 00:15:05;;;;;;;14.25;6.20;;;9.80;99.90;;;;;;5046995;28;20120;-67
2022/10/26 00:17:32;;;;;;;11.98;6.32;;;9.90;99.90;;;;;;5047703;28;20129;-66
2022/10/26 00:19:59;;;;;;;13.25;6.88;;;9.90;99.90;;;;;;5029516;28;20094;-66
2022/10/26 00:22:25;;;;;;;13.77;6.65;;;9.90;99.90;;;;;;5047308;28;20421;-66
2022/10/26 00:24:52;;;;;;;12.40;6.72;;;9.90;99.90;;;;;;5046773;28;20320;-66
2022/10/26 00:27:17;;;;;;;8.55;6.07;;;9.90;99.90;;;;;;5045879;28;20041;-67
2022/10/26 00:29:43;;;;;;;16.52;6.25;;;9.90;99.90;;;;;;5047417;28;20044;-67
2022/10/26 00:32:09;;;;;;;14.23;6.78;;;9.80;99.90;;;;;;5029005;28;20057;-66
2022/10/26 00:34:35;;;;;;;24.17;7.55;;;9.80;99.90;;;;;;5046272;28;20083;-66
2022/10/26 00:37:00;;;;;;;12.40;6.45;;;9.80;99.90;;;;;;5046532;28;20075;-67
2022/10/26 00:39:26;;;;;;;10.65;6.32;;;9.80;99.90;;;;;;5046549;28;20515;-67
2022/10/26 00:41:52;;;;;;;16.35;6.60;;;9.70;99.90;;;;;;5046133;28;20423;-67
2022/10/26 00:44:57;;;;;;;10.20;6.22;;;9.70;99.90;;;;;;5028825;28;20048;-66
2022/10/26 00:47:38;;;;;;;11.63;5.90;;;9.70;99.90;;;;;;5046943;28;20049;-67
2022/10/26 00:50:38;;;;;;;9.80;5.78;;;9.70;99.90;;;;;;5047008;28;20469;-66
2022/10/26 00:53:05;;;;;;;19.67;6.38;;;9.70;99.90;;;;;;5038326;28;20048;-67
2022/10/26 00:55:39;;;;;;;16.58;6.00;;;9.60;99.90;;;;;;5046726;28;20430;-67
2022/10/26 00:58:07;;;;;;;19.17;6.95;;;9.60;99.90;;;;;;5028394;28;20037;-67
2022/10/26 01:00:33;;;;;;;10.85;5.80;;;9.60;99.90;;;;;;5046725;28;20033;-66
2022/10/26 01:03:03;;;;;;;20.02;6.40;;;9.50;99.90;;;;;;5028679;28;20071;-67
2022/10/26 01:05:29;;;;;;;;;;;9.50;99.90;;;;;;5047043;28;20457;-67
2022/10/26 01:07:55;;;;;;;14.93;6.43;;;9.50;99.90;;;;;;5046061;28;19921;-67
2022/10/26 01:10:21;;;;;;;7.70;5.20;;;9.50;99.90;;;;;;5028577;28;20057;-67
2022/10/26 01:12:48;;;;;;;13.93;6.35;;;9.50;99.90;;;;;;5046571;28;20103;-67
2022/10/26 01:15:14;;;;;;;16.63;6.38;;;9.50;99.90;;;;;;5045821;28;20056;-67
2022/10/26 01:17:55;;;;;;;17.90;6.60;;;9.50;99.90;;;;;;5045993;28;20044;-67
2022/10/26 01:20:28;;;;;;;9.23;6.38;;;9.50;99.90;;;;;;5046128;28;20105;-67
2022/10/26 01:22:54;;;;;;;10.63;6.60;;;9.50;99.90;;;;;;5045870;28;20045;-67
2022/10/26 01:25:50;;;;;;;12.00;7.35;;;9.50;99.90;;;;;;5046341;28;20507;-67
2022/10/26 01:29:03;;;;;;;10.73;6.35;;;9.50;99.90;;;;;;5014434;28;20187;-67
2022/10/26 01:31:39;;;;;;;12.93;6.75;;;9.50;99.90;;;;;;5001421;28;20045;-67
2022/10/26 01:34:22;;;;;;;15.90;6.90;;;9.50;99.90;;;;;;5028272;28;20565;-67
2022/10/26 01:36:53;;;;;;;10.57;6.53;;;9.50;99.90;;;;;;5041341;28;20048;-67
2022/10/26 01:39:44;;;;;;;12.50;7.20;;;9.50;99.90;;;;;;5046737;28;20049;-67
2022/10/26 01:42:13;;;;;;;11.70;6.57;;;9.50;99.90;;;;;;5011740;28;20076;-67
2022/10/26 01:44:43;;;;;;;16.17;6.53;;;9.50;99.90;;;;;;5010834;28;20051;-67
2022/10/26 01:47:10;;;;;;;;;;;9.50;99.90;;;;;;5046807;28;20553;-66
2022/10/26 01:49:41;;;;;;;10.65;5.90;;;9.50;99.90;;;;;;5045379;28;19920;-67
2022/10/26 01:52:09;;;;;;;13.07;6.43;;;9.40;99.90;;;;;;5033355;28;20041;-66
2022/10/26 01:54:35;;;;;;;14.30;6.53;;;9.50;99.90;;;;;;5045555;28;20059;-67
2022/10/26 01:57:05;;;;;;;13.98;6.97;;;9.40;99.90;;;;;;5045093;28;20053;-66
2022/10/26 01:59:58;;;;;;;22.50;7.43;;;9.40;99.90;;;;;;5045806;28;20407;-66
2022/10/26 02:02:38;;;;;;;11.20;6.32;;;9.50;99.90;;;;;;5038956;28;20569;-66
2022/10/26 02:05:23;;;;;;;12.77;6.67;;;9.40;99.90;;;;;;5028372;28;20091;-67
2022/10/26 02:08:03;;;;;;;22.23;6.35;;;9.40;99.90;;;;;;5027216;28;20056;-67
2022/10/26 02:10:52;;;;;;;13.00;6.22;;;9.40;99.90;;;;;;5027448;28;20049;-67
2022/10/26 02:13:46;;;;;;;11.98;6.20;;;9.40;99.90;;;;;;5043559;28;20068;-67
2022/10/26 02:16:36;;;;;;;21.38;6.68;;;9.40;99.90;;;;;;5045515;28;20045;-66
2022/10/26 02:19:19;;;;;;;11.95;6.13;;;9.40;99.90;;;;;;5027349;28;20451;-66
2022/10/26 02:21:48;;;;;;;10.13;6.32;;;9.40;99.90;;;;;;5045304;28;20033;-66
2022/10/26 02:24:16;;;;;;;12.65;6.22;;;9.30;99.90;;;;;;5026251;28;20049;-68
2022/10/26 02:26:46;;;;;;;19.98;5.97;;;9.30;99.90;;;;;;5046153;28;20812;-67
2022/10/26 02:29:14;;;;;;;;;;;9.30;99.90;;;;;;5028370;28;20041;-67
2022/10/26 02:31:42;;;;;;;11.20;5.65;;;9.30;99.90;;;;;;5049751;28;20321;-67
2022/10/26 02:34:12;;;;;;;11.75;5.70;;;9.30;99.90;;;;;;5049206;28;20037;-67
2022/10/26 02:36:42;;;;;;;11.60;6.05;;;9.30;99.90;;;;;;5049274;28;20406;-67
2022/10/26 02:39:16;;;;;;;11.18;6.18;;;9.30;99.90;;;;;;5049738;28;20114;-67
2022/10/26 02:41:44;;;;;;;15.65;6.45;;;9.30;99.90;;;;;;5030854;28;20052;-66
2022/10/26 02:44:23;;;;;;;19.95;7.22;;;9.30;99.90;;;;;;5049789;28;20056;-67
2022/10/26 02:46:50;;;;;;;12.82;6.32;;;9.30;99.90;;;;;;5031165;28;20055;-66
2022/10/26 02:49:17;;;;;;;11.93;6.10;;;9.30;99.90;;;;;;5031646;28;20091;-66
2022/10/26 02:51:44;;;;;;;9.18;6.43;;;9.30;99.90;;;;;;5031498;28;20080;-67
2022/10/26 02:54:22;;;;;;;19.58;6.35;;;9.20;99.90;;;;;;5030998;28;20029;-67
2022/10/26 02:56:54;;;;;;;9.52;5.78;;;9.20;99.90;;;;;;5049108;28;20053;-67
2022/10/26 02:59:22;;;;;;;11.65;6.70;;;9.20;99.90;;;;;;5049180;28;20078;-67
2022/10/26 03:01:50;;;;;;;12.15;6.20;;;9.20;99.90;;;;;;5049163;28;20437;-67
2022/10/26 03:04:16;;;;;;;16.48;6.80;;;9.20;99.90;;;;;;5030455;28;20099;-67
2022/10/26 03:06:50;;;;;;;14.05;6.40;;;9.20;99.90;;;;;;5031134;28;20045;-67
2022/10/26 03:09:15;;;;;;;12.95;6.20;;;9.20;99.90;;;;;;5031417;28;20110;-67
2022/10/26 03:11:41;;;;;;;10.20;6.50;;;9.10;99.90;;;;;;5048429;28;20426;-67
2022/10/26 03:14:07;;;;;;;17.10;7.03;;;9.10;99.90;;;;;;5049100;28;20099;-66
2022/10/26 03:16:33;;;;;;;18.65;6.75;;;9.10;99.90;;;;;;5048353;28;20052;-67
2022/10/26 03:18:58;;;;;;;11.60;6.07;;;9.10;99.90;;;;;;5030722;28;20045;-66
2022/10/26 03:21:24;;;;;;;10.75;6.85;;;9.00;99.90;;;;;;5048742;28;20125;-67
2022/10/26 03:23:50;;;;;;;22.05;7.03;;;9.00;99.90;;;;;;5030297;28;20051;-67
2022/10/26 03:26:16;;;;;;;10.05;6.43;;;9.00;99.90;;;;;;5031137;28;20068;-67
2022/10/26 03:28:42;;;;;;;22.40;7.22;;;8.90;99.90;;;;;;5030131;28;20119;-67
2022/10/26 03:31:07;;;;;;;16.00;7.28;;;8.90;99.90;;;;;;5048207;28;20460;-67
2022/10/26 03:33:34;;;;;;;17.30;7.43;;;8.90;99.90;;;;;;5047873;28;20135;-67
2022/10/26 03:36:00;;;;;;;12.70;7.70;;;8.90;99.90;;;;;;5014446;28;20465;-67
2022/10/26 03:38:26;;;;;;;18.70;8.30;;;9.00;99.90;;;;;;5048583;28;20045;-67
2022/10/26 03:40:52;;;;;;;20.75;7.70;;;8.90;99.90;;;;;;5047211;28;20067;-67
2022/10/26 03:43:18;;;;;;;14.30;7.50;;;8.90;99.90;;;;;;5030227;28;20057;-67
2022/10/26 03:45:44;;;;;;;13.80;8.13;;;8.90;99.90;;;;;;5048257;28;20112;-67
2022/10/26 03:48:10;;;;;;;17.75;8.18;;;8.90;99.90;;;;;;5048086;28;20556;-67
2022/10/26 03:50:35;;;;;;;15.60;8.30;;;8.90;99.90;;;;;;5047543;28;20489;-67
2022/10/26 03:53:01;;;;;;;14.27;8.13;;;8.90;99.90;;;;;;5047893;28;20041;-67
2022/10/26 03:55:27;;;;;;;9.98;7.40;;;8.90;99.90;;;;;;5029655;28;20057;-67
2022/10/26 03:57:53;;;;;;;11.93;8.38;;;8.90;99.90;;;;;;5048419;28;20060;-67
2022/10/26 04:00:18;;;;;;;11.75;7.40;;;8.90;99.90;;;;;;5029534;28;20052;-67
2022/10/26 04:02:47;;;;;;;15.40;8.50;;;8.80;99.90;;;;;;5013889;28;20081;-67
2022/10/26 04:05:15;;;;;;;24.60;9.82;;;8.80;99.90;;;;;;5012608;28;20057;-67
2022/10/26 04:07:42;;;;;;;17.98;8.45;;;8.70;99.90;;;;;;5047750;28;20073;-67
2022/10/26 04:10:08;;;;;;;19.02;8.32;;;8.80;99.90;;;;;;5047806;28;20037;-67
2022/10/26 04:12:36;;;;;;;17.98;8.68;;;8.80;99.90;;;;;;5029446;28;20049;-67
2022/10/26 04:15:03;;;;;;;15.13;8.30;;;8.80;99.90;;;;;;5047729;28;20498;-67
2022/10/26 04:17:28;;;;;;;16.38;8.55;;;8.80;99.90;;;;;;5047540;28;20415;-67
2022/10/26 04:19:54;;;;;;;15.30;9.10;;;8.80;99.90;;;;;;5012532;28;20037;-67
2022/10/26 04:22:20;;;;;;;14.23;8.63;;;8.80;99.90;;;;;;5029784;28;20045;-67
2022/10/26 04:24:45;;;;;;;20.60;8.38;;;8.80;99.90;;;;;;5029353;28;20041;-67
2022/10/26 04:27:11;;;;;;;16.27;8.38;;;8.70;99.90;;;;;;5013232;28;20053;-67
2022/10/26 04:29:37;;;;;;;15.70;9.15;;;8.70;99.90;;;;;;5046758;28;20444;-67
2022/10/26 04:32:03;;;;;;;18.23;8.93;;;8.70;99.90;;;;;;5029168;28;20118;-67
2022/10/26 04:34:28;;;;;;;13.80;8.30;;;8.80;99.90;;;;;;5028447;28;20114;-67
2022/10/26 04:36:54;;;;;;;16.48;9.48;;;8.80;99.90;;;;;;5029783;28;20391;-67
2022/10/26 04:39:20;;;;;;;12.82;9.07;;;8.80;99.90;;;;;;5028898;28;20053;-67
2022/10/26 04:41:46;;;;;;;26.67;9.65;;;8.80;99.90;;;;;;5029188;28;20048;-67
2022/10/26 04:44:11;;;;;;;23.08;8.80;;;8.70;99.90;;;;;;5046792;28;20487;-67
2022/10/26 04:46:37;;;;;;;18.02;8.90;;;8.70;99.90;;;;;;5046708;28;20414;-67
2022/10/26 04:49:03;;;;;;;17.55;8.32;;;8.70;99.90;;;;;;5047371;28;20373;-67
2022/10/26 04:51:29;;;;;;;16.73;8.50;;;8.80;99.90;;;;;;5012067;28;20045;-67
2022/10/26 04:53:54;;;;;;;14.35;9.43;;;8.80;99.90;;;;;;5050057;28;20548;-67
2022/10/26 04:56:20;;;;;;;19.85;8.93;;;8.80;99.90;;;;;;5052645;28;20589;-67
2022/10/26 04:58:46;;;;;;;21.23;8.35;;;8.80;99.90;;;;;;5051498;28;20052;-67
2022/10/26 05:01:11;;;;;;;20.33;8.32;;;8.80;99.90;;;;;;5046556;28;20044;-67
2022/10/26 05:03:38;;;;;;;14.05;8.45;;;8.80;99.90;;;;;;5028639;28;20388;-68
2022/10/26 05:06:04;;;;;;;20.35;8.98;;;8.80;99.90;;;;;;5028728;28;20056;-67
2022/10/26 05:08:30;;;;;;;12.93;7.93;;;8.80;99.90;;;;;;5027756;28;20530;-67
2022/10/26 05:10:56;;;;;;;16.23;8.27;;;8.70;99.90;;;;;;5029443;28;20399;-67
2022/10/26 05:13:21;;;;;;;12.82;8.48;;;8.70;99.90;;;;;;5011307;28;20036;-67
2022/10/26 05:15:47;;;;;;;13.60;8.15;;;8.70;99.90;;;;;;5046836;28;20094;-67
2022/10/26 05:18:13;;;;;;;16.45;8.45;;;8.70;99.90;;;;;;5048301;28;20053;-67
2022/10/26 05:20:39;;;;;;;13.10;8.90;;;8.70;99.90;;;;;;5052616;28;20384;-67
2022/10/26 05:23:10;;;;;;;14.52;7.95;;;8.60;99.90;;;;;;5045806;28;20106;-67
2022/10/26 05:25:37;;;;;;;16.95;8.45;;;8.60;99.90;;;;;;5046338;28;20098;-67
2022/10/26 05:28:10;;;;;;;18.02;9.05;;;8.60;99.90;;;;;;5046461;28;20106;-67
2022/10/26 05:30:36;;;;;;;17.05;8.35;;;8.60;99.90;;;;;;5027335;28;20106;-67
2022/10/26 05:33:02;;;;;;;27.40;8.40;;;8.60;99.90;;;;;;5012194;28;20045;-67
2022/10/26 05:35:28;;;;;;;19.58;8.30;;;8.70;99.90;;;;;;5027833;28;20504;-67
2022/10/26 05:37:54;;;;;;;15.05;8.38;;;8.70;99.90;;;;;;5045671;28;20042;-67
2022/10/26 05:40:20;;;;;;;17.20;8.63;;;8.70;99.90;;;;;;5047528;28;20450;-67
2022/10/26 05:42:47;;;;;;;14.55;8.30;;;8.70;99.90;;;;;;5045241;28;20402;-67
2022/10/26 05:45:12;;;;;;;15.35;8.23;;;8.80;99.90;;;;;;5027419;28;20387;-67
2022/10/26 05:47:43;;;;;;;19.42;8.00;;;8.80;99.90;;;;;;5027436;28;20045;-67
2022/10/26 05:50:10;;;;;;;12.77;7.93;;;8.80;99.90;;;;;;5045637;28;20116;-67
2022/10/26 05:52:43;;;;;;;11.13;7.82;;;8.80;99.90;;;;;;5045414;28;20037;-68
2022/10/26 05:55:11;;;;;;;13.75;7.63;;;8.80;99.90;;;;;;5044673;28;20479;-67
2022/10/26 05:57:37;;;;;;;16.63;8.18;;;8.80;99.90;;;;;;5046362;28;20411;-67
2022/10/26 06:00:24;;;;;;;9.30;7.22;;;8.90;99.90;;;;;;5054200;28;20450;-67
2022/10/26 06:03:02;;;;;;;11.38;7.57;;;8.90;99.90;;;;;;5025794;28;20540;-67
2022/10/26 06:05:32;;;;;;;11.82;7.85;;;8.90;99.90;;;;;;5044281;28;20495;-67
2022/10/26 06:07:58;;;;;;;;;;;8.90;99.90;;;;;;5028599;28;20045;-67
2022/10/26 06:10:24;;;;;;;19.38;7.85;;;8.90;99.90;;;;;;5026987;28;20130;-67
2022/10/26 06:12:50;;;;;;;15.20;7.47;;;9.00;99.90;;;;;;5045821;28;20120;-67
2022/10/26 06:15:19;;;;;;;15.40;8.02;;;9.00;99.90;;;;;;5026826;28;20148;-67
2022/10/26 06:17:53;;;;;;;19.88;7.70;;;9.00;99.90;;;;;;5045431;28;20065;-67
2022/10/26 06:20:50;;;;;;;10.05;7.78;;;9.00;99.90;;;;;;5046117;28;20056;-68
2022/10/26 06:23:34;;;;;;;16.42;7.53;;;9.10;99.90;;;;;;5018467;28;20076;-67
2022/10/26 06:26:16;;;;;;;12.82;7.32;;;9.10;99.90;;;;;;5045081;28;20510;-70
2022/10/26 06:29:06;;;;;;;14.43;7.40;;;9.10;99.90;;;;;;5046518;28;20045;-67
2022/10/26 06:31:32;;;;;;;10.82;7.35;;;9.10;99.90;;;;;;5044935;28;20579;-67
2022/10/26 06:33:59;;;;;;;10.95;7.88;;;9.20;99.90;;;;;;5028013;28;20136;-66
2022/10/26 06:36:27;;;;;;;13.80;8.15;;;9.20;99.90;;;;;;5026304;28;20037;-67
2022/10/26 06:39:03;;;;;;;9.45;7.03;;;9.20;99.90;;;;;;5027480;28;20041;-67
2022/10/26 06:41:34;;;;;;;10.63;7.03;;;9.20;99.90;;;;;;5027002;28;20048;-67
2022/10/26 06:44:04;;;;;;;10.75;7.20;;;9.30;99.90;;;;;;5044903;28;20410;-69
2022/10/26 06:46:46;;;;;;;16.00;6.80;;;9.30;99.90;;;;;;5045351;28;20494;-67
2022/10/26 06:49:30;;;;;;;10.98;6.95;;;9.40;99.90;;;;;;5044526;28;20037;-67
2022/10/26 06:52:11;;;;;;;18.58;6.78;;;9.40;99.90;;;;;;5044355;28;20040;-67
2022/10/26 06:54:54;;;;;;;10.27;6.82;;;9.50;99.90;;;;;;5045741;28;20071;-67
2022/10/26 06:57:27;;;;;;;13.38;7.57;;;9.50;99.90;;;;;;5020157;28;20551;-67
2022/10/26 06:59:56;;;;;;;18.45;7.20;;;9.60;99.90;;;;;;5026579;28;20041;-68
2022/10/26 07:02:23;;;;;;;20.57;7.70;;;9.60;99.90;;;;;;5026571;28;20408;-67
2022/10/26 07:04:48;;;;;;;9.27;6.85;;;9.70;99.90;;;;;;5044956;28;20483;-67
2022/10/26 07:07:19;;;;;;;13.15;7.03;;;9.70;99.90;;;;;;5044867;28;20132;-67
2022/10/26 07:09:45;;;;;;;24.13;6.88;;;9.80;99.90;;;;;;5045070;28;20052;-68
2022/10/26 07:12:11;;;;;;;11.15;6.47;;;9.90;99.90;;;;;;5027074;28;20056;-67
2022/10/26 07:14:36;;;;;;;23.08;7.10;;;9.90;99.90;;;;;;5043552;28;20045;-67
2022/10/26 07:17:03;;;;;;;11.05;7.10;;;9.90;99.90;;;;;;5029005;28;20048;-67
2022/10/26 07:19:29;;;;;;;19.80;7.80;;;10.00;99.90;;;;;;5047972;28;20719;-68
2022/10/26 07:21:56;;;;;;;10.15;7.35;;;10.10;99.90;;;;;;5030761;28;20110;-67
2022/10/26 07:24:22;;;;;;;18.92;7.20;;;10.20;99.90;;;;;;5030126;28;20389;-67
2022/10/26 07:26:48;;;;;;;18.77;7.90;;;10.30;99.90;;;;;;5047818;28;20041;-68
2022/10/26 07:29:16;;;;;;;15.85;8.68;;;10.30;99.90;;;;;;5048340;28;20049;-67
2022/10/26 07:31:42;;;;;;;17.55;8.20;;;10.40;99.90;;;;;;5014075;28;20077;-67
2022/10/26 07:34:08;;;;;;;15.18;7.53;;;10.40;99.90;;;;;;5030686;28;20090;-67
2022/10/26 07:36:38;;;;;;;12.95;8.43;;;10.40;99.90;;;;;;5029232;28;20076;-67
2022/10/26 07:39:04;;;;;;;13.60;7.20;;;10.40;99.90;;;;;;5048177;28;20102;-67
2022/10/26 07:41:30;;;;;;;16.13;7.25;;;10.50;99.90;;;;;;5047178;28;20073;-68
2022/10/26 07:43:56;;;;;;;16.55;7.32;;;10.50;99.90;;;;;;5029812;28;20416;-68
2022/10/26 07:46:22;;;;;;;14.57;7.72;;;10.50;99.90;;;;;;5047712;28;20064;-68
2022/10/26 07:48:48;;;;;;;18.45;8.38;;;10.60;99.90;;;;;;5029472;28;20053;-68
2022/10/26 07:51:14;;;;;;;13.48;7.72;;;10.60;99.90;;;;;;5046297;28;20049;-68
2022/10/26 07:53:40;;;;;;;9.10;7.20;;;10.60;99.90;;;;;;5029763;28;20048;-68
2022/10/26 07:56:06;;;;;;;17.58;7.13;;;10.60;99.90;;;;;;5047495;28;20049;-68
2022/10/26 07:58:33;;;;;;;20.33;7.85;;;10.70;99.90;;;;;;5047537;28;20045;-68
2022/10/26 08:01:08;;;;;;;7.95;6.20;;;10.80;99.90;;;;;;5029334;28;20495;-68
2022/10/26 08:03:34;;;;;;;15.18;6.68;;;10.80;99.90;;;;;;5029331;28;20406;-68
2022/10/26 08:06:00;;;;;;;9.30;7.45;;;10.80;99.90;;;;;;5012401;28;20041;-68
2022/10/26 08:08:26;;;;;;;12.25;6.95;;;10.90;99.90;;;;;;5029601;28;20417;-68
2022/10/26 08:10:51;;;;;;;13.85;6.93;;;10.90;99.90;;;;;;5046937;28;20049;-67
2022/10/26 08:13:17;;;;;;;11.50;7.15;;;11.00;99.90;;;;;;5029188;28;20127;-68
2022/10/26 08:15:43;;;;;;;11.00;6.72;;;11.10;99.90;;;;;;5028781;28;20393;-67
2022/10/26 08:18:09;;;;;;;7.53;6.68;;;11.10;99.90;;;;;;5023913;28;20049;-68
2022/10/26 08:20:35;;;;;;;12.77;6.43;;;11.20;99.90;;;;;;5017246;28;20603;-68
2022/10/26 08:23:02;;;;;;;11.88;6.85;;;11.30;99.90;;;;;;5026288;28;20390;-68
2022/10/26 08:25:28;;;;;;;36.53;7.35;;;11.40;99.90;;;;;;5026191;28;20057;-68
2022/10/26 08:27:54;;;;;;;10.43;6.80;;;11.50;99.90;;;;;;5043155;28;20044;-67
2022/10/26 08:30:20;;;;;;;19.38;6.65;;;11.60;99.90;;;;;;5044304;28;20048;-68
2022/10/26 08:32:45;;;;;;;10.90;6.75;;;11.70;99.90;;;;;;5026084;28;20045;-68
2022/10/26 08:35:11;;;;;;;10.27;5.75;;;11.80;99.90;;;;;;5026612;28;20045;-68
2022/10/26 08:37:37;;;;;;;9.95;5.78;;;11.90;99.90;;;;;;5043797;28;20033;-68
2022/10/26 08:40:03;;;;;;;17.55;6.22;;;12.00;99.90;;;;;;5043485;28;20098;-68
2022/10/26 08:42:37;;;;;;;8.25;5.13;;;12.00;99.90;;;;;;5026239;28;20942;-68
2022/10/26 08:45:17;;;;;;;23.38;6.32;;;12.10;99.90;;;;;;5026393;28;20036;-68
2022/10/26 08:47:49;;;;;;;10.60;4.68;;;12.20;99.90;;;;;;5044147;28;20048;-68
2022/10/26 08:50:52;;;;;;;14.80;5.25;;;12.30;99.90;;;;;;5043950;28;20398;-68
2022/10/26 08:53:29;;;;;;;9.90;5.03;;;12.40;99.90;;;;;;5022541;28;20053;-68
2022/10/26 08:56:25;;;;;;;9.77;5.20;;;12.50;99.90;;;;;;5044849;28;20052;-68
2022/10/26 08:59:09;;;;;;;8.75;4.72;;;12.60;99.90;;;;;;5014110;28;20102;-68
2022/10/26 09:01:35;;;;;;;9.25;5.22;;;12.70;99.90;;;;;;5038481;28;20087;-68
2022/10/26 09:04:02;;;;;;;11.45;4.65;;;12.80;99.90;;;;;;5044627;28;20640;-68
2022/10/26 09:06:48;;;;;;;7.22;5.35;;;12.90;99.90;;;;;;5025549;28;20045;-68
2022/10/26 09:09:22;;;;;;;12.77;5.22;;;13.10;99.90;;;;;;5025957;28;20053;-68
2022/10/26 09:12:30;;;;;;;6.95;4.68;;;13.30;99.90;;;;;;5026093;28;20055;-68
2022/10/26 09:14:59;;;;;;;8.43;5.10;;;13.40;99.90;;;;;;5038148;28;20316;-67
2022/10/26 09:17:38;;;;;;;6.03;4.70;;;13.70;99.90;;;;;;5045508;28;20390;-68
2022/10/26 09:20:06;;;;;;;5.68;5.07;;;13.90;99.90;;;;;;5025431;28;20045;-68
2022/10/26 09:23:15;;;;;;;14.77;5.43;;;13.90;99.90;;;;;;5045558;28;20044;-68
2022/10/26 09:25:41;;;;;;;7.05;4.90;;;14.00;99.90;;;;;;5025268;28;20604;-66
2022/10/26 09:28:16;;;;;;;8.40;4.20;;;14.20;99.90;;;;;;5045035;28;21083;-65
2022/10/26 09:30:44;;;;;;;5.55;4.10;;;14.10;99.90;;;;;;5045748;28;20664;-66
2022/10/26 09:33:21;;;;;;;11.30;5.03;;;14.10;99.90;;;;;;5027564;28;20041;-65
2022/10/26 09:35:56;;;;;;;8.40;4.35;;;14.10;99.90;;;;;;5039872;28;20048;-65
2022/10/26 09:38:28;;;;;;;4.82;3.67;;;14.20;99.90;;;;;;5042818;28;20061;-65
2022/10/26 09:41:02;;;;;;;9.57;4.10;;;14.40;99.90;;;;;;5042178;28;20123;-66
2022/10/26 09:43:56;;;;;;;12.35;3.67;;;14.50;99.90;;;;;;5042525;28;20095;-65
2022/10/26 09:46:30;;;;;;;5.75;3.47;;;14.70;99.90;;;;;;5043225;28;20067;-66
2022/10/26 09:49:05;;;;;;;7.53;3.20;;;14.70;99.90;;;;;;5025981;28;20049;-66
2022/10/26 09:51:38;;;;;;;12.45;3.17;;;14.80;99.90;;;;;;5026795;28;20060;-65
2022/10/26 09:54:16;;;;;;;4.18;2.80;;;14.90;99.90;;;;;;5043585;28;20036;-65
2022/10/26 09:56:45;;;;;;;6.97;3.72;;;15.10;99.90;;;;;;5042362;28;20636;-65
2022/10/26 09:59:14;;;;;;;7.53;3.20;;;15.30;99.90;;;;;;5044125;28;20134;-66
2022/10/26 10:01:40;;;;;;;8.73;2.93;;;15.40;99.90;;;;;;5027354;28;20306;-66
2022/10/26 10:04:12;;;;;;;8.25;3.03;;;15.60;99.90;;;;;;5045142;28;20048;-66
2022/10/26 10:06:39;;;;;;;7.97;2.35;;;15.60;99.90;;;;;;5044504;28;20498;-65
2022/10/26 10:09:12;;;;;;;10.57;2.92;;;15.80;99.90;;;;;;5045763;28;20048;-65
2022/10/26 10:11:39;;;;;;;3.47;2.40;;;16.00;99.90;;;;;;5044965;28;20076;-65
2022/10/26 10:14:14;;;;;;;8.75;2.30;;;16.10;99.90;;;;;;5045942;28;20072;-65
2022/10/26 10:16:41;;;;;;;14.38;1.80;;;16.30;99.90;;;;;;5027194;28;20041;-65
2022/10/26 10:19:22;;;;;;;9.00;2.40;;;16.40;99.90;;;;;;5045378;28;20434;-66
2022/10/26 10:21:50;;;;;;;10.57;3.85;;;16.60;99.90;;;;;;5045163;28;20381;-66
2022/10/26 10:25:05;;;;;;;5.03;2.05;;;16.70;99.90;;;;;;5044633;28;20045;-67
2022/10/26 10:27:32;;;;;;;5.63;1.92;;;16.80;99.90;;;;;;5019898;28;20068;-67
2022/10/26 10:30:26;;;;;;;4.38;1.88;;;16.90;99.90;;;;;;5027885;28;20041;-67
2022/10/26 10:33:10;;;;;;;8.52;1.70;;;17.00;99.90;;;;;;5044599;28;20056;-67
2022/10/26 10:35:45;;;;;;;10.35;2.63;;;17.00;99.90;;;;;;5027493;28;20060;-67
2022/10/26 10:38:20;;;;;;;5.82;1.48;;;17.10;99.90;;;;;;5043289;28;20041;-67
2022/10/26 10:40:54;;;;;;;5.00;1.55;;;17.10;99.90;;;;;;5044920;28;20620;-67
2022/10/26 10:43:20;;;;;;;17.10;1.77;;;17.20;99.90;;;;;;5044002;28;20505;-66
2022/10/26 10:45:48;;;;;;;4.85;1.80;;;17.10;99.90;;;;;;5044668;28;20407;-67
2022/10/26 10:48:19;;;;;;;3.67;1.40;;;17.10;99.90;;;;;;5027294;28;20041;-67
2022/10/26 10:51:11;;;;;;;11.85;2.10;;;17.10;99.90;;;;;;5045863;28;20033;-67
2022/10/26 10:53:48;;;;;;;4.90;1.67;;;17.00;99.90;;;;;;5046364;28;20037;-67
2022/10/26 10:56:34;;;;;;;5.93;2.30;;;17.00;99.90;;;;;;5030533;28;20087;-67
2022/10/26 10:59:14;;;;;;;6.53;1.67;;;17.10;99.90;;;;;;5045444;28;20295;-67
2022/10/26 11:02:11;;;;;;;12.13;2.25;;;17.20;99.90;;;;;;5045775;28;20128;-67
2022/10/26 11:04:57;;;;;;;14.68;2.00;;;17.10;99.90;;;;;;5045879;28;20045;-68
2022/10/26 11:07:25;;;;;;;8.80;1.95;;;17.00;99.90;;;;;;5028231;28;20136;-67
2022/10/26 11:09:53;;;;;;;4.22;1.77;;;16.90;99.90;;;;;;5048403;28;20052;-68
2022/10/26 11:12:33;;;;;;;3.83;1.60;;;16.80;99.90;;;;;;5047749;28;20045;-67
2022/10/26 11:15:05;;;;;;;8.20;2.17;;;16.80;99.90;;;;;;5048233;28;20037;-67
2022/10/26 11:17:45;;;;;;;7.32;1.92;;;16.70;99.90;;;;;;5012866;28;20576;-67
2022/10/26 11:20:17;;;;;;;3.97;1.67;;;16.80;99.90;;;;;;5013449;28;20048;-68
2022/10/26 11:23:02;;;;;;;11.18;1.92;;;16.80;99.90;;;;;;5046196;28;20067;-67
2022/10/26 11:25:34;;;;;;;1.73;1.23;;;16.80;99.90;;;;;;5047090;28;20124;-67
2022/10/26 11:28:11;;;;;;;5.18;1.48;;;16.80;99.90;;;;;;5048109;28;20040;-67
2022/10/26 11:30:44;;;;;;;7.88;1.80;;;16.90;99.90;;;;;;5030700;28;20059;-67
2022/10/26 11:33:35;;;;;;;10.60;2.22;;;16.90;99.90;;;;;;5049566;28;20114;-68
2022/10/26 11:36:07;;;;;;;12.88;2.17;;;16.90;99.90;;;;;;5043151;28;20573;-67
2022/10/26 11:38:48;;;;;;;6.18;1.95;;;16.90;99.90;;;;;;5013016;28;20053;-68
2022/10/26 11:41:41;;;;;;;12.15;2.08;;;16.90;99.90;;;;;;5045876;28;20152;-68
2022/10/26 11:44:13;;;;;;;5.53;2.22;;;17.00;99.90;;;;;;5048305;28;20049;-67
2022/10/26 11:46:47;;;;;;;19.08;3.08;;;17.10;99.90;;;;;;5028808;28;20045;-68
2022/10/26 11:49:13;;;;;;;19.27;4.18;;;17.10;99.90;;;;;;5048730;28;20414;-66
2022/10/26 11:52:16;;;;;;;20.90;2.05;;;17.20;99.90;;;;;;5029149;28;20049;-67
2022/10/26 11:54:50;;;;;;;7.50;2.30;;;17.20;99.90;;;;;;5047328;28;20128;-67
2022/10/26 11:57:17;;;;;;;14.00;2.47;;;17.40;99.90;;;;;;5029490;28;20057;-67
2022/10/26 11:59:49;;;;;;;10.05;1.80;;;17.50;99.90;;;;;;5028673;28;20053;-67
2022/10/26 12:02:19;;;;;;;20.27;2.47;;;17.70;99.90;;;;;;5041065;28;20060;-67
2022/10/26 12:04:46;;;;;;;;;;;17.80;99.90;;;;;;5046697;28;20043;-67
2022/10/26 12:07:32;;;;;;;7.22;1.75;;;17.80;99.90;;;;;;5046700;28;19951;-67
2022/10/26 12:10:01;;;;;;;7.32;2.05;;;18.00;99.90;;;;;;5043280;28;20045;-68
2022/10/26 12:12:45;;;;;;;7.00;1.85;;;18.00;99.90;;;;;;5026538;28;20113;-67
2022/10/26 12:15:40;;;;;;;8.35;2.10;;;18.10;99.90;;;;;;5028352;28;20059;-67
2022/10/26 12:18:23;;;;;;;8.00;1.60;;;18.20;99.90;;;;;;5045254;28;20107;-67
2022/10/26 12:21:08;;;;;;;4.07;1.65;;;18.30;99.90;;;;;;5041708;28;20037;-67
2022/10/26 12:23:37;;;;;;;2.58;1.27;;;18.40;99.90;;;;;;5043861;28;20048;-67
2022/10/26 12:26:22;;;;;;;6.35;1.92;;;18.50;99.90;;;;;;5046001;28;20039;-68
2022/10/26 12:28:48;;;;;;;4.07;2.08;;;18.60;99.90;;;;;;5046129;28;20045;-67
2022/10/26 12:31:36;;;;;;;23.30;2.35;;;18.70;99.90;;;;;;5046910;28;20045;-68
2022/10/26 12:34:09;;;;;;;4.53;1.70;;;18.80;99.90;;;;;;5043002;28;20045;-67
2022/10/26 12:36:54;;;;;;;4.57;1.48;;;18.90;99.90;;;;;;5049022;28;20036;-67
2022/10/26 12:39:30;;;;;;;5.75;2.13;;;19.00;99.90;;;;;;5028487;28;20049;-67
2022/10/26 12:42:24;;;;;;;7.68;1.70;;;19.00;99.90;;;;;;5046462;28;20070;-67
2022/10/26 12:44:50;;;;;;;9.57;1.98;;;19.10;99.90;;;;;;5042666;28;20045;-67
2022/10/26 12:47:27;;;;;;;3.35;1.50;;;19.00;99.90;;;;;;5048308;28;20040;-67
2022/10/26 12:50:06;;;;;;;3.85;1.60;;;18.90;99.90;;;;;;5046782;28;20152;-67
2022/10/26 12:52:42;;;;;;;4.90;1.77;;;18.90;99.90;;;;;;5049351;28;20061;-67
2022/10/26 12:55:11;;;;;;;11.18;2.30;;;18.90;99.90;;;;;;5025790;28;20499;-67
2022/10/26 12:58:05;;;;;;;11.27;1.65;;;19.00;99.90;;;;;;5047068;28;20516;-67
2022/10/26 13:00:35;;;;;;;9.70;1.98;;;19.10;99.90;;;;;;5027992;28;20049;-67
2022/10/26 13:03:39;;;;;;;7.65;2.20;;;19.20;99.90;;;;;;5046232;28;20037;-67
2022/10/26 13:06:47;;;;;;;5.03;1.80;;;19.20;99.90;;;;;;5046411;28;20132;-67
2022/10/26 13:09:19;;;;;;;2.33;1.40;;;19.20;99.90;;;;;;5036766;28;20570;-68
2022/10/26 13:11:52;;;;;;;3.15;2.22;;;19.20;99.90;;;;;;5046324;28;20033;-67